createdAt,value
2023-01-23T06:11:32.158Z,99.99
2023-01-23T06:13:58.879Z,99.95
2023-01-23T06:16:25.770Z,99.72
2023-01-23T06:18:52.525Z,99.41
2023-01-23T06:21:19.622Z,99.45
2023-01-23T06:23:50.294Z,99.39
2023-01-23T06:26:17.387Z,99.29
2023-01-23T06:28:44.134Z,99.22
2023-01-23T06:31:12.519Z,98.81
2023-01-23T06:33:58.178Z,98.77
2023-01-23T06:36:29.071Z,98.63
2023-01-23T06:38:55.623Z,98.52
2023-01-23T06:41:27.083Z,98.28
2023-01-23T06:43:54.537Z,98.26
2023-01-23T06:46:23.268Z,98.03
2023-01-23T06:48:51.875Z,97.91
2023-01-23T06:51:18.727Z,97.86
2023-01-23T06:53:46.266Z,97.60
2023-01-23T06:56:14.180Z,97.64
2023-01-23T06:58:43.506Z,97.46
2023-01-23T07:01:17.026Z,97.58
2023-01-23T07:04:04.134Z,97.67
2023-01-23T07:06:32.439Z,97.59
2023-01-23T07:09:00.446Z,97.46
2023-01-23T07:11:28.164Z,97.61
2023-01-23T07:13:56.888Z,97.58
2023-01-23T07:16:24.647Z,96.98
2023-01-23T07:18:53.392Z,96.95
2023-01-23T07:21:20.120Z,97.11
2023-01-23T07:23:47.142Z,96.97
2023-01-23T07:26:15.406Z,96.79
2023-01-23T07:28:45.597Z,96.93
2023-01-23T07:31:12.996Z,96.91
2023-01-23T07:33:46.966Z,96.75
2023-01-23T07:36:15.573Z,96.68
2023-01-23T07:38:42.783Z,96.58
2023-01-23T07:41:14.761Z,96.43
2023-01-23T07:43:41.610Z,96.52
2023-01-23T07:46:09.044Z,96.36
2023-01-23T07:48:37.353Z,96.23
2023-01-23T07:51:04.568Z,96.23
2023-01-23T07:53:33.619Z,96.24
2023-01-23T07:56:03.919Z,96.10
2023-01-23T07:58:40.627Z,95.90
2023-01-23T08:01:09.660Z,95.60
2023-01-23T08:03:37.771Z,95.45
2023-01-23T08:06:06.752Z,95.13
2023-01-23T08:08:35.756Z,94.54
2023-01-23T08:11:05.669Z,93.82
2023-01-23T08:13:33.032Z,93.60
2023-01-23T08:15:59.881Z,94.00
2023-01-23T08:18:28.512Z,94.09
2023-01-23T08:20:57.563Z,92.69
2023-01-23T08:23:26.479Z,92.00
2023-01-23T08:25:54.864Z,92.52
2023-01-23T08:28:22.719Z,93.11
2023-01-23T08:30:52.505Z,93.30
2023-01-23T08:33:20.696Z,93.53
2023-01-23T08:35:55.245Z,93.96
2023-01-23T08:38:26.021Z,94.43
2023-01-23T08:41:00.769Z,94.46
2023-01-23T08:43:29.911Z,94.21
2023-01-23T08:45:58.835Z,94.10
2023-01-23T08:48:31.401Z,93.74
2023-01-23T08:51:01.791Z,93.15
2023-01-23T08:53:30.816Z,92.53
2023-01-23T08:56:10.169Z,92.13
2023-01-23T08:58:37.899Z,92.36
2023-01-23T09:01:16.323Z,92.59
2023-01-23T09:03:45.078Z,92.26
2023-01-23T09:06:15.115Z,92.03
2023-01-23T09:08:42.927Z,91.70
2023-01-23T09:11:10.291Z,91.66
2023-01-23T09:13:38.038Z,91.91
2023-01-23T09:16:10.515Z,92.29
2023-01-23T09:18:39.562Z,92.27
2023-01-23T09:21:11.307Z,92.28
2023-01-23T09:23:48.128Z,92.09
2023-01-23T09:26:17.637Z,92.07
2023-01-23T09:28:48.754Z,91.89
2023-01-23T09:31:19.347Z,92.33
2023-01-23T09:33:48.896Z,92.45
2023-01-23T09:36:18.025Z,92.56
2023-01-23T09:38:47.009Z,92.56
2023-01-23T09:41:28.602Z,91.60
2023-01-23T09:44:17.270Z,92.00
2023-01-23T09:46:56.342Z,92.21
2023-01-23T09:49:44.907Z,92.32
2023-01-23T09:52:42.490Z,92.79
2023-01-23T09:55:25.531Z,92.54
2023-01-23T09:58:03.899Z,92.35
2023-01-23T10:00:36.433Z,92.26
2023-01-23T10:03:15.885Z,92.13
2023-01-23T10:05:46.170Z,92.17
2023-01-23T10:08:32.510Z,92.33
2023-01-23T10:10:59.704Z,91.62
2023-01-23T10:13:37.165Z,91.01
2023-01-23T10:16:13.618Z,91.16
2023-01-23T10:18:53.830Z,91.84
2023-01-23T13:19:38.548Z,91.87
2023-01-23T13:22:34.907Z,91.28
2023-01-23T13:25:21.546Z,90.96
2023-01-23T13:28:02.671Z,90.96
2023-01-23T13:30:36.604Z,90.99
2023-01-23T13:33:05.723Z,90.91
2023-01-23T13:35:45.119Z,90.72
2023-01-23T13:38:24.640Z,90.46
2023-01-23T13:41:24.175Z,90.48
2023-01-23T13:44:17.782Z,90.33
2023-01-23T14:20:43.259Z,88.70
2023-01-23T14:23:40.589Z,88.69
2023-01-23T14:26:11.100Z,88.69
2023-01-23T14:28:44.557Z,88.50
2023-01-23T14:34:09.798Z,88.53
2023-01-23T14:36:45.125Z,88.56
2023-01-23T14:39:38.479Z,88.59
2023-01-23T14:42:16.561Z,88.73
2023-01-23T14:44:55.518Z,88.85
2023-01-23T14:47:45.451Z,88.98
2023-01-23T14:50:25.139Z,89.06
2023-01-23T14:53:04.172Z,89.09
2023-01-23T14:55:35.914Z,89.16
2023-01-23T14:58:07.151Z,89.04
2023-01-23T15:01:16.159Z,88.99
2023-01-23T15:04:00.414Z,88.80
2023-01-23T15:06:33.053Z,88.77
2023-01-23T15:09:11.719Z,88.64
2023-01-23T15:11:38.963Z,88.60
2023-01-23T15:14:14.527Z,88.35
2023-01-23T15:16:41.694Z,88.17
2023-01-23T15:19:20.799Z,88.34
2023-01-23T15:21:48.159Z,88.29
2023-01-23T15:24:26.186Z,88.35
2023-01-23T15:27:05.960Z,88.06
2023-01-23T15:29:39.242Z,87.96
2023-01-23T15:32:15.401Z,87.90
2023-01-23T15:34:51.992Z,87.78
2023-01-23T15:37:23.448Z,87.54
2023-01-23T15:40:02.091Z,87.50
2023-01-23T15:42:34.104Z,87.37
2023-01-23T15:45:01.476Z,87.21
2023-01-23T15:47:34.319Z,87.13
2023-01-23T15:50:04.286Z,87.16
2023-01-23T15:52:48.215Z,87.23
2023-01-23T15:55:16.742Z,87.33
2023-01-23T15:57:43.988Z,87.23
2023-01-23T16:00:21.400Z,87.21
2023-01-23T16:02:56.131Z,87.19
2023-01-23T16:05:35.590Z,87.20
2023-01-23T16:08:23.168Z,87.25
2023-01-23T16:10:53.758Z,87.45
2023-01-23T16:13:21.667Z,87.49
2023-01-23T16:15:51.268Z,87.43
2023-01-23T16:18:20.046Z,87.32
2023-01-23T16:20:47.809Z,87.40
2023-01-23T16:23:21.689Z,87.41
2023-01-23T16:25:49.631Z,87.46
2023-01-23T16:28:26.410Z,87.44
2023-01-23T16:30:53.542Z,87.56
2023-01-23T16:33:22.291Z,87.50
2023-01-23T16:35:52.068Z,87.42
2023-01-23T16:38:23.941Z,87.48
2023-01-23T16:40:52.576Z,87.59
2023-01-23T16:43:20.866Z,87.73
2023-01-23T16:45:47.932Z,87.50
2023-01-23T16:48:27.184Z,87.42
2023-01-23T16:51:23.591Z,87.44
2023-01-23T16:56:57.475Z,87.71
2023-01-23T16:59:41.382Z,87.73
2023-01-23T17:02:46.360Z,87.76
2023-01-23T17:05:38.162Z,87.98
2023-01-23T17:08:36.370Z,88.01
2023-01-23T17:11:28.893Z,88.01
2023-01-23T17:14:49.679Z,88.16
2023-01-23T17:17:51.859Z,88.51
2023-01-23T17:20:29.300Z,88.49
2023-01-23T17:23:04.415Z,88.60
2023-01-23T17:26:00.801Z,88.43
2023-01-23T17:28:58.635Z,88.50
2023-01-23T17:31:33.391Z,88.58
2023-01-23T17:34:07.702Z,88.63
2023-01-23T17:36:34.928Z,88.66
2023-01-23T17:39:02.526Z,88.60
2023-01-23T17:41:38.584Z,88.71
2023-01-23T17:44:06.507Z,88.83
2023-01-23T17:46:36.551Z,88.96
2023-01-23T17:49:13.562Z,88.71
2023-01-23T17:51:40.461Z,88.70
2023-01-23T17:54:16.194Z,88.84
2023-01-23T17:56:45.141Z,88.59
2023-01-23T17:59:13.095Z,88.65
